Terminal Aerodrome Forecast
Issued by NWS

Home | Current Version | Previous Version | Graphics & Text | Print | Product List | Glossary On
Versions: 1 2 3 4 5 6 7 8 9 10 11 12 13 14 15 16 17 18 19 20
000
FTUS43 KMPX 281720
TAFRNH
TAF
KRNH 281720Z 2818/2918 16008KT P6SM SCT005 BKN015
     FM281900 16008KT P6SM BKN035
     FM290800 16003KT 2SM BR SCT005
      TEMPO 2909/2913 1/2SM FG VV003
     FM291400 18008KT P6SM BKN015=

USA.gov is the U.S. government's official web portal to all federal, state and local government web resources and services.